sensor_id;sensor_type;location;lat;lon;timestamp;pressure;altitude;pressure_sealevel;temperature;humidity
76592;BME280;65481;47.600;19.682;2022-12-24T00:04:58;99759.91;;;3.87;100.00
76592;BME280;65481;47.600;19.682;2022-12-24T00:09:58;99754.28;;;3.90;100.00
76592;BME280;65481;47.600;19.682;2022-12-24T00:14:58;99751.88;;;3.96;100.00
76592;BME280;65481;47.600;19.682;2022-12-24T00:19:59;99726.59;;;3.96;100.00
76592;BME280;65481;47.600;19.682;2022-12-24T00:25:00;99695.25;;;3.89;100.00
76592;BME280;65481;47.600;19.682;2022-12-24T00:30:01;99671.31;;;3.79;100.00
76592;BME280;65481;47.600;19.682;2022-12-24T00:35:01;99674.13;;;3.71;100.00
76592;BME280;65481;47.600;19.682;2022-12-24T00:40:02;99672.13;;;3.73;100.00
76592;BME280;65481;47.600;19.682;2022-12-24T00:45:03;99664.09;;;3.74;100.00
76592;BME280;65481;47.600;19.682;2022-12-24T00:50:04;99687.38;;;3.76;100.00
76592;BME280;65481;47.600;19.682;2022-12-24T00:55:05;99691.19;;;3.73;100.00
76592;BME280;65481;47.600;19.682;2022-12-24T01:00:06;99698.63;;;3.76;100.00
76592;BME280;65481;47.600;19.682;2022-12-24T01:05:10;99693.41;;;3.83;100.00
76592;BME280;65481;47.600;19.682;2022-12-24T01:10:12;99680.59;;;3.88;100.00
76592;BME280;65481;47.600;19.682;2022-12-24T01:15:14;99682.59;;;3.93;100.00
76592;BME280;65481;47.600;19.682;2022-12-24T01:20:15;99702.28;;;3.96;100.00
76592;BME280;65481;47.600;19.682;2022-12-24T01:25:16;99720.53;;;3.89;100.00
76592;BME280;65481;47.600;19.682;2022-12-24T01:30:18;99706.31;;;3.91;100.00
76592;BME280;65481;47.600;19.682;2022-12-24T01:35:19;99692.28;;;3.99;100.00
76592;BME280;65481;47.600;19.682;2022-12-24T01:40:20;99674.56;;;3.94;100.00
76592;BME280;65481;47.600;19.682;2022-12-24T01:45:44;99661.94;;;3.91;100.00
76592;BME280;65481;47.600;19.682;2022-12-24T01:50:46;99652.28;;;3.92;100.00
76592;BME280;65481;47.600;19.682;2022-12-24T01:55:47;99654.91;;;3.92;100.00
76592;BME280;65481;47.600;19.682;2022-12-24T02:00:48;99640.06;;;3.92;100.00
76592;BME280;65481;47.600;19.682;2022-12-24T02:05:53;99629.56;;;3.86;100.00
76592;BME280;65481;47.600;19.682;2022-12-24T02:10:55;99621.19;;;3.97;100.00
76592;BME280;65481;47.600;19.682;2022-12-24T02:21:57;99581.19;;;3.97;100.00
76592;BME280;65481;47.600;19.682;2022-12-24T02:27:18;99595.06;;;3.97;100.00
76592;BME280;65481;47.600;19.682;2022-12-24T02:37:30;99624.78;;;3.96;100.00
76592;BME280;65481;47.600;19.682;2022-12-24T02:42:39;99633.84;;;4.00;100.00
76592;BME280;65481;47.600;19.682;2022-12-24T02:47:41;99651.91;;;4.02;100.00
76592;BME280;65481;47.600;19.682;2022-12-24T02:52:45;99622.19;;;3.96;100.00
76592;BME280;65481;47.600;19.682;2022-12-24T03:03:19;99626.41;;;3.97;100.00
76592;BME280;65481;47.600;19.682;2022-12-24T03:13:35;99649.50;;;4.14;100.00
76592;BME280;65481;47.600;19.682;2022-12-24T03:18:39;99644.06;;;4.15;100.00
76592;BME280;65481;47.600;19.682;2022-12-24T03:23:42;99620.78;;;4.20;100.00
76592;BME280;65481;47.600;19.682;2022-12-24T03:28:43;99605.50;;;4.24;100.00
76592;BME280;65481;47.600;19.682;2022-12-24T03:33:45;99613.16;;;4.19;100.00
76592;BME280;65481;47.600;19.682;2022-12-24T03:38:46;99596.06;;;4.23;100.00
76592;BME280;65481;47.600;19.682;2022-12-24T03:43:46;99598.28;;;4.19;100.00
76592;BME280;65481;47.600;19.682;2022-12-24T03:48:47;99607.72;;;4.20;100.00
76592;BME280;65481;47.600;19.682;2022-12-24T03:53:48;99598.28;;;4.06;100.00
76592;BME280;65481;47.600;19.682;2022-12-24T03:58:49;99614.34;;;4.09;100.00
76592;BME280;65481;47.600;19.682;2022-12-24T04:03:49;99619.38;;;4.18;100.00
76592;BME280;65481;47.600;19.682;2022-12-24T04:08:50;99609.34;;;4.15;100.00
76592;BME280;65481;47.600;19.682;2022-12-24T04:13:50;99629.81;;;4.11;100.00
76592;BME280;65481;47.600;19.682;2022-12-24T04:18:51;99632.22;;;3.99;100.00
76592;BME280;65481;47.600;19.682;2022-12-24T04:23:51;99616.75;;;3.98;100.00
76592;BME280;65481;47.600;19.682;2022-12-24T04:28:52;99617.13;;;3.94;100.00
76592;BME280;65481;47.600;19.682;2022-12-24T04:33:52;99629.19;;;3.96;100.00
76592;BME280;65481;47.600;19.682;2022-12-24T04:38:53;99629.81;;;3.98;100.00
76592;BME280;65481;47.600;19.682;2022-12-24T04:43:53;99631.19;;;3.93;100.00
76592;BME280;65481;47.600;19.682;2022-12-24T04:48:54;99629.78;;;3.91;100.00
76592;BME280;65481;47.600;19.682;2022-12-24T04:53:55;99635.63;;;3.86;100.00
76592;BME280;65481;47.600;19.682;2022-12-24T04:58:57;99623.75;;;3.84;100.00
76592;BME280;65481;47.600;19.682;2022-12-24T05:03:58;99631.56;;;3.84;100.00
76592;BME280;65481;47.600;19.682;2022-12-24T05:08:59;99642.41;;;3.74;100.00
76592;BME280;65481;47.600;19.682;2022-12-24T05:14:00;99646.97;;;3.58;100.00
76592;BME280;65481;47.600;19.682;2022-12-24T05:19:01;99650.56;;;3.51;100.00
76592;BME280;65481;47.600;19.682;2022-12-24T05:24:02;99647.97;;;3.57;100.00
76592;BME280;65481;47.600;19.682;2022-12-24T05:29:21;99643.97;;;3.55;100.00
76592;BME280;65481;47.600;19.682;2022-12-24T05:34:21;99657.59;;;3.57;100.00
76592;BME280;65481;47.600;19.682;2022-12-24T05:39:22;99651.38;;;3.51;100.00
76592;BME280;65481;47.600;19.682;2022-12-24T05:44:24;99645.72;;;3.47;100.00
76592;BME280;65481;47.600;19.682;2022-12-24T05:49:24;99663.19;;;3.47;100.00
76592;BME280;65481;47.600;19.682;2022-12-24T05:54:26;99658.56;;;3.42;100.00
76592;BME280;65481;47.600;19.682;2022-12-24T05:59:27;99656.31;;;3.32;100.00
76592;BME280;65481;47.600;19.682;2022-12-24T06:04:28;99651.50;;;3.36;100.00
76592;BME280;65481;47.600;19.682;2022-12-24T06:09:29;99654.94;;;3.37;100.00
76592;BME280;65481;47.600;19.682;2022-12-24T06:14:30;99653.28;;;3.29;100.00
76592;BME280;65481;47.600;19.682;2022-12-24T06:19:31;99668.72;;;3.24;100.00
76592;BME280;65481;47.600;19.682;2022-12-24T06:24:32;99664.91;;;3.26;100.00
76592;BME280;65481;47.600;19.682;2022-12-24T06:29:32;99668.34;;;3.33;100.00
76592;BME280;65481;47.600;19.682;2022-12-24T06:34:33;99674.94;;;3.29;100.00
76592;BME280;65481;47.600;19.682;2022-12-24T06:39:33;99692.22;;;3.30;100.00
76592;BME280;65481;47.600;19.682;2022-12-24T06:44:34;99685.22;;;3.38;100.00
76592;BME280;65481;47.600;19.682;2022-12-24T06:49:34;99692.47;;;3.42;100.00
76592;BME280;65481;47.600;19.682;2022-12-24T06:54:35;99696.31;;;3.46;100.00
76592;BME280;65481;47.600;19.682;2022-12-24T06:59:36;99718.59;;;3.49;100.00
76592;BME280;65481;47.600;19.682;2022-12-24T07:04:36;99728.38;;;3.40;100.00
76592;BME280;65481;47.600;19.682;2022-12-24T07:09:37;99731.16;;;3.39;100.00
76592;BME280;65481;47.600;19.682;2022-12-24T07:14:37;99741.38;;;3.33;100.00
76592;BME280;65481;47.600;19.682;2022-12-24T07:19:38;99753.84;;;3.38;100.00
76592;BME280;65481;47.600;19.682;2022-12-24T07:24:38;99764.88;;;3.40;100.00
76592;BME280;65481;47.600;19.682;2022-12-24T07:29:39;99768.72;;;3.44;100.00
76592;BME280;65481;47.600;19.682;2022-12-24T07:34:40;99758.91;;;3.46;100.00
76592;BME280;65481;47.600;19.682;2022-12-24T07:39:41;99761.59;;;3.60;100.00
76592;BME280;65481;47.600;19.682;2022-12-24T07:44:42;99770.47;;;3.72;100.00
76592;BME280;65481;47.600;19.682;2022-12-24T07:49:42;99782.28;;;3.68;100.00
76592;BME280;65481;47.600;19.682;2022-12-24T07:54:43;99773.06;;;3.72;100.00
76592;BME280;65481;47.600;19.682;2022-12-24T07:59:43;99786.38;;;3.84;100.00
76592;BME280;65481;47.600;19.682;2022-12-24T08:04:44;99778.31;;;3.79;100.00
76592;BME280;65481;47.600;19.682;2022-12-24T08:09:44;99782.13;;;3.76;100.00
76592;BME280;65481;47.600;19.682;2022-12-24T08:14:45;99789.38;;;3.81;100.00
76592;BME280;65481;47.600;19.682;2022-12-24T08:19:46;99801.66;;;3.87;100.00
76592;BME280;65481;47.600;19.682;2022-12-24T08:24:46;99814.31;;;3.90;100.00
76592;BME280;65481;47.600;19.682;2022-12-24T08:29:48;99817.00;;;4.04;100.00
76592;BME280;65481;47.600;19.682;2022-12-24T08:34:49;99835.16;;;4.26;100.00
76592;BME280;65481;47.600;19.682;2022-12-24T08:39:49;99847.50;;;4.52;100.00
76592;BME280;65481;47.600;19.682;2022-12-24T08:44:51;99852.19;;;4.83;100.00
76592;BME280;65481;47.600;19.682;2022-12-24T08:49:52;99859.25;;;5.10;100.00
76592;BME280;65481;47.600;19.682;2022-12-24T08:54:52;99870.53;;;5.37;100.00
76592;BME280;65481;47.600;19.682;2022-12-24T08:59:54;99872.66;;;5.81;100.00
76592;BME280;65481;47.600;19.682;2022-12-24T09:04:54;99879.06;;;6.18;100.00
76592;BME280;65481;47.600;19.682;2022-12-24T09:09:55;99876.72;;;6.42;100.00
76592;BME280;65481;47.600;19.682;2022-12-24T09:14:55;99878.25;;;6.63;100.00
76592;BME280;65481;47.600;19.682;2022-12-24T09:19:56;99872.84;;;6.90;100.00
76592;BME280;65481;47.600;19.682;2022-12-24T09:24:57;99880.72;;;7.16;100.00
76592;BME280;65481;47.600;19.682;2022-12-24T09:29:58;99883.94;;;7.43;100.00
76592;BME280;65481;47.600;19.682;2022-12-24T09:34:59;99893.09;;;7.59;100.00
76592;BME280;65481;47.600;19.682;2022-12-24T09:40:00;99903.28;;;7.74;100.00
76592;BME280;65481;47.600;19.682;2022-12-24T09:45:15;99914.84;;;7.92;100.00
76592;BME280;65481;47.600;19.682;2022-12-24T09:50:28;99930.31;;;8.18;100.00
76592;BME280;65481;47.600;19.682;2022-12-24T09:55:43;99941.72;;;8.49;100.00
76592;BME280;65481;47.600;19.682;2022-12-24T10:00:48;99942.16;;;8.65;100.00
76592;BME280;65481;47.600;19.682;2022-12-24T10:11:19;99936.66;;;8.97;100.00
76592;BME280;65481;47.600;19.682;2022-12-24T10:16:48;99938.06;;;9.12;100.00
76592;BME280;65481;47.600;19.682;2022-12-24T10:27:25;99949.56;;;9.29;100.00
76592;BME280;65481;47.600;19.682;2022-12-24T10:32:31;99948.53;;;9.30;100.00
76592;BME280;65481;47.600;19.682;2022-12-24T10:37:31;99955.53;;;9.36;100.00
76592;BME280;65481;47.600;19.682;2022-12-24T10:42:40;99961.72;;;9.42;100.00
76592;BME280;65481;47.600;19.682;2022-12-24T10:47:44;99961.28;;;9.45;100.00
76592;BME280;65481;47.600;19.682;2022-12-24T10:52:47;99965.28;;;9.48;100.00
76592;BME280;65481;47.600;19.682;2022-12-24T10:58:12;99966.91;;;9.61;100.00
76592;BME280;65481;47.600;19.682;2022-12-24T11:08:17;99959.38;;;9.88;100.00
76592;BME280;65481;47.600;19.682;2022-12-24T11:13:26;99965.88;;;9.97;100.00
76592;BME280;65481;47.600;19.682;2022-12-24T11:18:28;99966.25;;;10.01;100.00
76592;BME280;65481;47.600;19.682;2022-12-24T11:23:29;99964.28;;;9.96;100.00
76592;BME280;65481;47.600;19.682;2022-12-24T11:28:31;99974.81;;;9.96;100.00
76592;BME280;65481;47.600;19.682;2022-12-24T11:33:51;99979.19;;;10.03;100.00
76592;BME280;65481;47.600;19.682;2022-12-24T11:38:56;99991.31;;;10.04;100.00
76592;BME280;65481;47.600;19.682;2022-12-24T11:44:01;100001.63;;;10.05;100.00
76592;BME280;65481;47.600;19.682;2022-12-24T11:54:26;99995.78;;;10.15;100.00
76592;BME280;65481;47.600;19.682;2022-12-24T11:59:33;99998.09;;;10.11;100.00
76592;BME280;65481;47.600;19.682;2022-12-24T12:04:38;100002.09;;;10.14;100.00
76592;BME280;65481;47.600;19.682;2022-12-24T12:10:42;100013.22;;;10.16;100.00
76592;BME280;65481;47.600;19.682;2022-12-24T12:20:33;100014.47;;;10.25;100.00
76592;BME280;65481;47.600;19.682;2022-12-24T12:30:43;100029.94;;;10.45;100.00
76592;BME280;65481;47.600;19.682;2022-12-24T12:35:46;100037.41;;;10.49;100.00
76592;BME280;65481;47.600;19.682;2022-12-24T12:41:10;100026.50;;;10.57;100.00
76592;BME280;65481;47.600;19.682;2022-12-24T12:57:14;100043.84;;;10.94;100.00
76592;BME280;65481;47.600;19.682;2022-12-24T13:02:31;100032.88;;;11.14;100.00
76592;BME280;65481;47.600;19.682;2022-12-24T13:23:23;100073.56;;;11.30;93.18
76592;BME280;65481;47.600;19.682;2022-12-24T13:54:29;100098.94;;;11.31;91.23
76592;BME280;65481;47.600;19.682;2022-12-24T13:59:38;100095.78;;;11.17;90.86
76592;BME280;65481;47.600;19.682;2022-12-24T14:04:39;100106.16;;;10.95;91.97
76592;BME280;65481;47.600;19.682;2022-12-24T14:09:47;100113.44;;;10.75;92.48
76592;BME280;65481;47.600;19.682;2022-12-24T14:14:49;100131.22;;;10.56;93.91
76592;BME280;65481;47.600;19.682;2022-12-24T14:19:55;100132.13;;;10.50;93.78
76592;BME280;65481;47.600;19.682;2022-12-24T14:25:22;100147.75;;;10.40;94.67
76592;BME280;65481;47.600;19.682;2022-12-24T14:30:28;100162.25;;;10.19;96.65
76592;BME280;65481;47.600;19.682;2022-12-24T14:35:35;100164.72;;;10.02;97.87
76592;BME280;65481;47.600;19.682;2022-12-24T14:40:47;100167.91;;;9.92;97.46
76592;BME280;65481;47.600;19.682;2022-12-24T14:46:10;100186.69;;;9.83;95.97
76592;BME280;65481;47.600;19.682;2022-12-24T14:56:32;100202.72;;;9.63;93.18
76592;BME280;65481;47.600;19.682;2022-12-24T15:01:32;100204.16;;;9.47;92.96
76592;BME280;65481;47.600;19.682;2022-12-24T15:06:47;100209.03;;;9.44;92.98
76592;BME280;65481;47.600;19.682;2022-12-24T15:11:51;100201.97;;;9.26;94.62
76592;BME280;65481;47.600;19.682;2022-12-24T15:16:55;100209.91;;;9.00;97.34
76592;BME280;65481;47.600;19.682;2022-12-24T15:21:56;100218.81;;;8.81;99.18
76592;BME280;65481;47.600;19.682;2022-12-24T15:26:58;100230.78;;;8.76;98.98
76592;BME280;65481;47.600;19.682;2022-12-24T15:32:01;100233.16;;;8.78;97.89
76592;BME280;65481;47.600;19.682;2022-12-24T15:37:26;100236.28;;;8.68;98.18
76592;BME280;65481;47.600;19.682;2022-12-24T15:42:27;100250.50;;;8.60;98.55
76592;BME280;65481;47.600;19.682;2022-12-24T15:47:43;100253.84;;;8.42;99.64
76592;BME280;65481;47.600;19.682;2022-12-24T15:52:45;100261.97;;;8.02;100.00
76592;BME280;65481;47.600;19.682;2022-12-24T15:57:46;100255.13;;;7.94;100.00
76592;BME280;65481;47.600;19.682;2022-12-24T16:02:48;100261.56;;;8.05;100.00
76592;BME280;65481;47.600;19.682;2022-12-24T16:13:29;100252.78;;;8.18;100.00
76592;BME280;65481;47.600;19.682;2022-12-24T16:18:36;100263.09;;;8.19;100.00
76592;BME280;65481;47.600;19.682;2022-12-24T16:23:45;100262.06;;;8.21;100.00
76592;BME280;65481;47.600;19.682;2022-12-24T16:28:46;100260.84;;;8.23;100.00
76592;BME280;65481;47.600;19.682;2022-12-24T16:33:51;100267.50;;;8.26;100.00
76592;BME280;65481;47.600;19.682;2022-12-24T16:38:52;100276.25;;;8.13;100.00
76592;BME280;65481;47.600;19.682;2022-12-24T16:44:11;100280.63;;;7.94;100.00
76592;BME280;65481;47.600;19.682;2022-12-24T16:49:16;100291.19;;;7.67;100.00
76592;BME280;65481;47.600;19.682;2022-12-24T16:54:18;100301.56;;;7.35;100.00
76592;BME280;65481;47.600;19.682;2022-12-24T16:59:21;100301.41;;;7.09;100.00
76592;BME280;65481;47.600;19.682;2022-12-24T17:04:22;100305.41;;;6.85;100.00
76592;BME280;65481;47.600;19.682;2022-12-24T17:09:22;100309.44;;;6.67;100.00
76592;BME280;65481;47.600;19.682;2022-12-24T17:14:23;100310.25;;;6.61;100.00
76592;BME280;65481;47.600;19.682;2022-12-24T17:19:23;100311.22;;;6.47;100.00
76592;BME280;65481;47.600;19.682;2022-12-24T17:24:24;100317.03;;;6.42;100.00
76592;BME280;65481;47.600;19.682;2022-12-24T17:29:24;100324.28;;;6.40;100.00
76592;BME280;65481;47.600;19.682;2022-12-24T17:34:25;100325.50;;;6.38;100.00
76592;BME280;65481;47.600;19.682;2022-12-24T17:39:26;100335.34;;;6.29;100.00
76592;BME280;65481;47.600;19.682;2022-12-24T17:44:26;100349.03;;;6.17;100.00
76592;BME280;65481;47.600;19.682;2022-12-24T17:49:27;100347.97;;;6.12;100.00
76592;BME280;65481;47.600;19.682;2022-12-24T17:54:27;100355.44;;;6.08;100.00
76592;BME280;65481;47.600;19.682;2022-12-24T17:59:28;100363.25;;;6.01;100.00
76592;BME280;65481;47.600;19.682;2022-12-24T18:04:28;100373.28;;;5.98;100.00
76592;BME280;65481;47.600;19.682;2022-12-24T18:09:29;100382.91;;;5.90;100.00
76592;BME280;65481;47.600;19.682;2022-12-24T18:14:30;100384.13;;;5.88;100.00
76592;BME280;65481;47.600;19.682;2022-12-24T18:19:30;100392.97;;;5.87;100.00
76592;BME280;65481;47.600;19.682;2022-12-24T18:24:31;100388.88;;;5.78;100.00
76592;BME280;65481;47.600;19.682;2022-12-24T18:29:32;100394.59;;;5.59;100.00
76592;BME280;65481;47.600;19.682;2022-12-24T18:34:32;100397.94;;;5.46;100.00
76592;BME280;65481;47.600;19.682;2022-12-24T18:39:33;100405.16;;;5.44;100.00
76592;BME280;65481;47.600;19.682;2022-12-24T18:44:33;100407.72;;;5.38;100.00
76592;BME280;65481;47.600;19.682;2022-12-24T18:49:35;100414.69;;;5.30;100.00
76592;BME280;65481;47.600;19.682;2022-12-24T18:54:36;100410.09;;;5.33;100.00
76592;BME280;65481;47.600;19.682;2022-12-24T18:59:38;100416.41;;;5.38;100.00
76592;BME280;65481;47.600;19.682;2022-12-24T19:04:38;100423.72;;;5.50;100.00
76592;BME280;65481;47.600;19.682;2022-12-24T19:09:39;100416.72;;;5.57;100.00
76592;BME280;65481;47.600;19.682;2022-12-24T19:14:39;100424.31;;;5.73;100.00
76592;BME280;65481;47.600;19.682;2022-12-24T19:19:40;100424.78;;;5.84;100.00
76592;BME280;65481;47.600;19.682;2022-12-24T19:24:40;100441.28;;;5.84;100.00
76592;BME280;65481;47.600;19.682;2022-12-24T19:29:41;100446.06;;;5.74;100.00
76592;BME280;65481;47.600;19.682;2022-12-24T19:34:41;100477.13;;;5.55;100.00
76592;BME280;65481;47.600;19.682;2022-12-24T19:39:42;100485.03;;;5.62;100.00
76592;BME280;65481;47.600;19.682;2022-12-24T19:44:43;100485.91;;;5.69;100.00
76592;BME280;65481;47.600;19.682;2022-12-24T19:49:44;100493.56;;;5.71;100.00
76592;BME280;65481;47.600;19.682;2022-12-24T19:54:44;100497.00;;;5.71;100.00
76592;BME280;65481;47.600;19.682;2022-12-24T19:59:45;100497.84;;;5.79;100.00
76592;BME280;65481;47.600;19.682;2022-12-24T20:04:45;100498.84;;;5.78;100.00
76592;BME280;65481;47.600;19.682;2022-12-24T20:09:46;100493.38;;;5.72;100.00
76592;BME280;65481;47.600;19.682;2022-12-24T20:14:46;100491.63;;;5.58;100.00
76592;BME280;65481;47.600;19.682;2022-12-24T20:19:47;100489.66;;;5.38;100.00
76592;BME280;65481;47.600;19.682;2022-12-24T20:24:47;100497.19;;;5.26;100.00
76592;BME280;65481;47.600;19.682;2022-12-24T20:29:48;100502.78;;;5.23;100.00
76592;BME280;65481;47.600;19.682;2022-12-24T20:34:48;100503.13;;;5.35;100.00
76592;BME280;65481;47.600;19.682;2022-12-24T20:39:49;100505.44;;;5.45;100.00
76592;BME280;65481;47.600;19.682;2022-12-24T20:44:50;100523.28;;;5.41;100.00
76592;BME280;65481;47.600;19.682;2022-12-24T20:49:50;100527.31;;;5.37;100.00
76592;BME280;65481;47.600;19.682;2022-12-24T20:54:51;100539.56;;;5.37;100.00
76592;BME280;65481;47.600;19.682;2022-12-24T20:59:51;100537.75;;;5.37;100.00
76592;BME280;65481;47.600;19.682;2022-12-24T21:04:52;100536.38;;;5.41;100.00
76592;BME280;65481;47.600;19.682;2022-12-24T21:09:52;100530.78;;;5.44;100.00
76592;BME280;65481;47.600;19.682;2022-12-24T21:14:53;100533.31;;;5.38;100.00
76592;BME280;65481;47.600;19.682;2022-12-24T21:19:54;100535.50;;;5.34;100.00
76592;BME280;65481;47.600;19.682;2022-12-24T21:24:54;100529.78;;;5.45;100.00
76592;BME280;65481;47.600;19.682;2022-12-24T21:29:55;100535.66;;;5.48;100.00
76592;BME280;65481;47.600;19.682;2022-12-24T21:34:55;100544.13;;;5.50;100.00
76592;BME280;65481;47.600;19.682;2022-12-24T21:39:56;100539.28;;;5.31;100.00
76592;BME280;65481;47.600;19.682;2022-12-24T21:44:56;100552.44;;;5.17;100.00
76592;BME280;65481;47.600;19.682;2022-12-24T21:49:57;100551.22;;;5.34;100.00
76592;BME280;65481;47.600;19.682;2022-12-24T21:55:16;100550.75;;;5.30;100.00
76592;BME280;65481;47.600;19.682;2022-12-24T22:00:17;100564.03;;;5.29;100.00
76592;BME280;65481;47.600;19.682;2022-12-24T22:05:31;100565.75;;;5.22;100.00
76592;BME280;65481;47.600;19.682;2022-12-24T22:10:32;100572.66;;;5.08;100.00
76592;BME280;65481;47.600;19.682;2022-12-24T22:15:52;100572.38;;;5.03;100.00
76592;BME280;65481;47.600;19.682;2022-12-24T22:20:53;100571.03;;;4.92;100.00
76592;BME280;65481;47.600;19.682;2022-12-24T22:25:54;100585.38;;;4.81;100.00
76592;BME280;65481;47.600;19.682;2022-12-24T22:30:54;100588.25;;;4.71;100.00
76592;BME280;65481;47.600;19.682;2022-12-24T22:35:54;100598.19;;;4.61;100.00
76592;BME280;65481;47.600;19.682;2022-12-24T22:40:55;100606.63;;;4.48;100.00
76592;BME280;65481;47.600;19.682;2022-12-24T22:45:55;100595.59;;;4.22;100.00
76592;BME280;65481;47.600;19.682;2022-12-24T22:50:56;100598.97;;;4.08;100.00
76592;BME280;65481;47.600;19.682;2022-12-24T22:55:57;100602.09;;;4.03;100.00
76592;BME280;65481;47.600;19.682;2022-12-24T23:00:57;100604.44;;;3.98;100.00
76592;BME280;65481;47.600;19.682;2022-12-24T23:06:00;100602.28;;;4.02;100.00
76592;BME280;65481;47.600;19.682;2022-12-24T23:11:12;100604.59;;;4.20;100.00
76592;BME280;65481;47.600;19.682;2022-12-24T23:16:13;100617.13;;;4.39;100.00
76592;BME280;65481;47.600;19.682;2022-12-24T23:21:14;100616.63;;;4.59;100.00
76592;BME280;65481;47.600;19.682;2022-12-24T23:26:16;100618.22;;;4.83;100.00
76592;BME280;65481;47.600;19.682;2022-12-24T23:31:18;100624.31;;;5.21;100.00
76592;BME280;65481;47.600;19.682;2022-12-24T23:36:19;100628.59;;;5.43;100.00
76592;BME280;65481;47.600;19.682;2022-12-24T23:41:20;100622.72;;;5.56;100.00
76592;BME280;65481;47.600;19.682;2022-12-24T23:46:21;100614.13;;;5.63;100.00
76592;BME280;65481;47.600;19.682;2022-12-24T23:51:25;100619.53;;;5.61;100.00
76592;BME280;65481;47.600;19.682;2022-12-24T23:56:26;100617.53;;;5.63;100.00
